KROA/ROA METAR and TAF weather

Enter ICAO airport designator
Station Type Date Time Source
KROA METAR 2021/07/29 01:54 UTC NOAA

KROA 290154Z 04005KT 10SM CLR 28/19 A3005 RMK AO2 SLP162 T02780189


Station Type Date Time Source
KROA Decoded METAR 2021/07/29 01:54 UTC NOAA

ROANOKE REGIONAL AIRPORT, VA, United States (KROA) 37-19N 079-58W 362M
Jul 28, 2021 - 09:54 PM EDT / 2021.07.29 0154 UTC
Wind: from the NE (040 degrees) at 6 MPH (5 KT):0
Visibility: 10 mile(s):0
Sky conditions: clear
Temperature: 82.0 F (27.8 C)
Dew Point: 66.0 F (18.9 C)
Relative Humidity: 58%
Pressure (altimeter): 30.05 in. Hg (1017 hPa)
ob: KROA 290154Z 04005KT 10SM CLR 28/19 A3005 RMK AO2 SLP162 T02780189
cycle: 2

Station Type Date Time Source
KROA TAF 2021/07/28 18:36 UTC NOAA

TAF KROA 281733Z 2818/2918 01005KT P6SM FEW150
FM290600 00000KT P6SM SKC
FM291700 27008KT P6SM SKC

Example: see airport list